createdAt,value
2022-12-19T00:00:15.091Z,6.70
2022-12-19T00:02:43.020Z,6.80
2022-12-19T00:05:13.463Z,6.80
2022-12-19T00:07:40.904Z,6.70
2022-12-19T00:10:08.949Z,6.70
2022-12-19T00:12:36.467Z,6.80
2022-12-19T00:15:04.304Z,6.90
2022-12-19T00:17:33.127Z,6.80
2022-12-19T00:20:02.902Z,6.80
2022-12-19T00:22:30.361Z,6.70
2022-12-19T00:24:57.917Z,6.80
2022-12-19T00:27:25.356Z,6.80
2022-12-19T00:29:52.839Z,6.80
2022-12-19T00:32:20.328Z,6.80
2022-12-19T00:34:47.793Z,6.90
2022-12-19T00:37:15.257Z,6.80
2022-12-19T00:39:42.767Z,6.80
2022-12-19T00:42:10.586Z,6.70
2022-12-19T00:44:38.150Z,6.60
2022-12-19T00:47:05.674Z,6.70
2022-12-19T00:49:33.108Z,6.70
2022-12-19T00:52:01.533Z,6.70
2022-12-19T00:54:31.044Z,6.70
2022-12-19T00:57:00.417Z,6.60
2022-12-19T00:59:28.061Z,6.60
2022-12-19T01:01:57.600Z,6.60
2022-12-19T01:04:28.600Z,6.60
2022-12-19T01:06:58.026Z,6.70
2022-12-19T01:09:33.405Z,6.80
2022-12-19T01:12:21.039Z,6.80
2022-12-19T01:14:57.716Z,6.70
2022-12-19T01:17:34.736Z,6.70
2022-12-19T01:20:19.079Z,6.80
2022-12-19T01:22:51.800Z,6.70
2022-12-19T01:25:19.320Z,6.70
2022-12-19T01:27:46.735Z,6.70
2022-12-19T01:30:14.182Z,6.60
2022-12-19T01:32:42.981Z,6.70
2022-12-19T01:35:15.416Z,6.60
2022-12-19T01:37:51.247Z,6.60
2022-12-19T01:40:20.164Z,6.80
2022-12-19T01:42:49.095Z,6.80
2022-12-19T01:45:17.433Z,6.70
2022-12-19T01:48:11.511Z,6.60
2022-12-19T01:51:02.682Z,6.70
2022-12-19T01:53:41.869Z,6.90
2022-12-19T01:56:19.165Z,6.70
2022-12-19T01:58:48.761Z,6.70
2022-12-19T02:01:17.590Z,6.70
2022-12-19T02:03:45.988Z,6.80
2022-12-19T02:06:17.190Z,6.90
2022-12-19T02:08:48.867Z,6.70
2022-12-19T02:11:16.438Z,6.70
2022-12-19T02:13:44.834Z,6.70
2022-12-19T02:16:56.541Z,6.80
2022-12-19T02:19:46.063Z,6.70
2022-12-19T02:22:21.137Z,6.70
2022-12-19T02:25:01.176Z,6.70
2022-12-19T02:28:03.546Z,6.80
2022-12-19T02:30:42.100Z,6.70
2022-12-19T02:33:26.078Z,6.70
2022-12-19T02:36:12.758Z,6.90
2022-12-19T02:39:00.027Z,6.80
2022-12-19T02:41:45.730Z,6.80
2022-12-19T02:44:27.417Z,6.90
2022-12-19T02:46:55.817Z,6.70
2022-12-19T02:49:26.573Z,7.00
2022-12-19T02:52:12.988Z,6.80
2022-12-19T02:54:45.142Z,6.90
2022-12-19T02:57:19.437Z,6.90
2022-12-19T03:00:03.053Z,7.10
2022-12-19T03:02:59.836Z,7.00
2022-12-19T03:05:39.551Z,7.00
2022-12-19T03:08:27.453Z,7.10
2022-12-19T03:11:10.500Z,7.00
2022-12-19T03:13:48.214Z,7.00
2022-12-19T03:16:15.949Z,7.20
2022-12-19T03:18:44.786Z,7.00
2022-12-19T03:21:17.739Z,7.20
2022-12-19T03:23:46.439Z,7.20
2022-12-19T03:26:22.290Z,7.10
2022-12-19T03:28:55.562Z,7.10
2022-12-19T03:31:27.091Z,7.20
2022-12-19T03:34:06.496Z,7.10
2022-12-19T03:36:42.687Z,7.00
2022-12-19T03:39:12.726Z,7.00
2022-12-19T03:42:01.673Z,7.10
2022-12-19T03:44:35.710Z,7.20
2022-12-19T03:47:22.869Z,7.00
2022-12-19T03:49:51.079Z,7.00
2022-12-19T03:52:28.428Z,7.00
2022-12-19T03:55:12.955Z,7.10
2022-12-19T03:57:46.369Z,7.00
2022-12-19T04:00:18.645Z,7.00
2022-12-19T04:02:49.976Z,7.20
2022-12-19T04:05:23.764Z,7.30
2022-12-19T04:07:55.116Z,7.10
2022-12-19T04:10:25.538Z,7.30
2022-12-19T04:13:03.190Z,7.30
2022-12-19T04:16:07.587Z,7.10
2022-12-19T04:18:36.468Z,7.10
2022-12-19T04:21:15.029Z,7.30
2022-12-19T04:23:50.940Z,7.10
2022-12-19T04:26:21.559Z,7.30
2022-12-19T04:28:54.301Z,7.10
2022-12-19T04:31:23.241Z,7.20
2022-12-19T04:33:50.856Z,7.30
2022-12-19T04:36:18.360Z,7.20
2022-12-19T04:38:45.804Z,7.20
2022-12-19T04:41:13.388Z,7.40
2022-12-19T04:43:40.831Z,7.30
2022-12-19T04:46:08.438Z,7.40
2022-12-19T04:48:37.019Z,7.40
2022-12-19T04:51:05.101Z,7.40
2022-12-19T04:53:33.000Z,7.50
2022-12-19T04:56:05.593Z,7.50
2022-12-19T04:58:34.110Z,7.40
2022-12-19T05:01:06.537Z,7.40
2022-12-19T05:03:35.099Z,7.60
2022-12-19T05:06:13.501Z,7.50
2022-12-19T05:08:43.060Z,7.60
2022-12-19T05:11:19.008Z,7.50
2022-12-19T05:13:47.701Z,7.50
2022-12-19T05:16:16.015Z,7.50
2022-12-19T05:18:44.264Z,7.50
2022-12-19T05:21:12.269Z,7.50
2022-12-19T05:23:39.783Z,7.70
2022-12-19T05:26:08.569Z,7.70
2022-12-19T05:28:36.147Z,7.70
2022-12-19T05:31:11.020Z,7.70
2022-12-19T05:33:39.407Z,7.90
2022-12-19T05:36:08.567Z,7.80
2022-12-19T05:38:37.082Z,7.60
2022-12-19T05:41:18.889Z,7.60
2022-12-19T05:43:51.015Z,7.90
2022-12-19T05:46:19.296Z,7.70
2022-12-19T05:48:47.065Z,7.90
2022-12-19T05:51:15.742Z,7.90
2022-12-19T05:53:43.567Z,7.90
2022-12-19T05:56:14.014Z,8.00
2022-12-19T05:58:42.938Z,8.00
2022-12-19T06:01:14.978Z,8.00
2022-12-19T06:03:42.743Z,7.70
2022-12-19T06:06:13.088Z,7.80
2022-12-19T06:08:41.456Z,7.70
2022-12-19T06:11:10.248Z,8.00
2022-12-19T06:13:38.582Z,7.90
2022-12-19T06:16:17.980Z,8.00
2022-12-19T06:18:46.121Z,7.90
2022-12-19T06:21:18.977Z,7.90
2022-12-19T06:23:47.418Z,7.90
2022-12-19T06:26:19.977Z,8.00
2022-12-19T06:28:49.312Z,7.90
2022-12-19T06:31:18.004Z,8.00
2022-12-19T06:33:45.781Z,8.00
2022-12-19T06:36:24.831Z,8.10
2022-12-19T06:38:53.915Z,8.10
2022-12-19T06:41:40.238Z,7.80
2022-12-19T06:44:11.762Z,8.00
2022-12-19T06:46:40.587Z,8.10
2022-12-19T06:49:09.017Z,7.90
2022-12-19T06:51:36.882Z,8.20
2022-12-19T06:54:04.884Z,8.10
2022-12-19T06:56:40.908Z,8.10
2022-12-19T06:59:12.780Z,8.20
2022-12-19T07:02:02.172Z,7.90
2022-12-19T07:04:51.763Z,7.90
2022-12-19T07:07:19.793Z,7.90
2022-12-19T07:09:48.328Z,8.20
2022-12-19T07:12:15.822Z,7.90
2022-12-19T07:14:43.278Z,8.20
2022-12-19T07:17:12.865Z,8.20
2022-12-19T07:19:40.802Z,8.10
2022-12-19T07:22:09.649Z,8.20
2022-12-19T07:24:37.422Z,8.10
2022-12-19T07:27:07.628Z,8.00
2022-12-19T07:29:35.102Z,8.30
2022-12-19T07:32:02.675Z,8.30
2022-12-19T07:34:30.244Z,8.30
2022-12-19T07:36:57.732Z,8.10
2022-12-19T07:39:25.523Z,8.10
2022-12-19T07:41:53.022Z,8.30
2022-12-19T07:44:30.574Z,8.20
2022-12-19T07:46:58.239Z,8.50
2022-12-19T07:49:25.741Z,8.50
2022-12-19T07:51:53.463Z,8.30
2022-12-19T07:54:21.020Z,8.30
2022-12-19T07:56:48.739Z,8.50
2022-12-19T07:59:16.239Z,8.50
2022-12-19T08:01:43.912Z,8.60
2022-12-19T08:04:11.876Z,8.30
2022-12-19T08:06:41.597Z,8.40
2022-12-19T08:09:09.461Z,8.60
2022-12-19T08:11:37.013Z,8.70
2022-12-19T08:14:04.691Z,8.50
2022-12-19T08:16:37.384Z,8.50
2022-12-19T08:19:17.134Z,8.60
2022-12-19T08:21:44.811Z,8.70
2022-12-19T08:24:12.417Z,8.60
2022-12-19T08:26:46.071Z,8.80
2022-12-19T08:29:16.283Z,8.70
2022-12-19T08:31:43.690Z,8.90
2022-12-19T08:34:11.374Z,8.90
2022-12-19T08:36:39.540Z,8.80
2022-12-19T08:39:07.500Z,8.90
2022-12-19T08:41:35.069Z,9.00
2022-12-19T08:44:02.659Z,8.80
2022-12-19T08:46:30.241Z,8.90
2022-12-19T08:48:58.186Z,8.70
2022-12-19T08:51:27.059Z,8.70
2022-12-19T08:53:54.507Z,9.00
2022-12-19T08:56:22.913Z,9.00
2022-12-19T08:58:53.514Z,9.00
2022-12-19T09:01:24.150Z,9.00
2022-12-19T09:04:19.095Z,9.00
2022-12-19T09:06:39.273Z,8.90
2022-12-19T09:09:07.265Z,8.90
2022-12-19T09:11:35.564Z,8.90
2022-12-19T09:14:08.468Z,9.00
2022-12-19T09:16:36.199Z,9.10
2022-12-19T09:19:03.955Z,9.00
2022-12-19T09:21:31.513Z,9.00
2022-12-19T09:24:05.500Z,9.30
2022-12-19T09:26:35.992Z,9.10
2022-12-19T09:29:10.986Z,9.40
2022-12-19T09:31:53.816Z,9.10
2022-12-19T09:34:30.016Z,9.10
2022-12-19T09:37:06.598Z,9.20
2022-12-19T09:39:35.241Z,9.40
2022-12-19T09:42:13.554Z,9.40
2022-12-19T09:44:52.811Z,9.50
2022-12-19T09:47:25.090Z,9.30
2022-12-19T09:49:57.046Z,9.30
2022-12-19T09:52:35.446Z,9.40
2022-12-19T09:55:26.364Z,9.40
2022-12-19T09:58:12.822Z,9.60
2022-12-19T10:00:44.680Z,9.60
2022-12-19T10:03:40.232Z,9.50
2022-12-19T10:07:18.443Z,9.40
2022-12-19T10:11:25.102Z,9.60
2022-12-19T10:12:53.067Z,9.50
2022-12-19T10:16:04.414Z,9.40
2022-12-19T10:18:56.515Z,9.80
2022-12-19T10:22:19.000Z,9.60
2022-12-19T10:25:09.207Z,9.60
2022-12-19T10:27:59.212Z,9.70
2022-12-19T10:30:33.230Z,9.90
2022-12-19T10:33:26.924Z,9.80
2022-12-19T10:36:02.280Z,10.00
2022-12-19T10:38:35.643Z,10.10
2022-12-19T10:41:16.863Z,10.00
2022-12-19T10:43:59.607Z,10.00
2022-12-19T10:46:39.331Z,10.20
2022-12-19T10:49:22.133Z,10.30
2022-12-19T10:52:01.356Z,10.30
2022-12-19T10:54:38.560Z,10.00
2022-12-19T10:57:26.234Z,10.30
2022-12-19T11:00:05.422Z,10.10
2022-12-19T11:02:38.979Z,10.40
2022-12-19T11:05:20.230Z,10.40
2022-12-19T11:08:06.884Z,10.10
2022-12-19T11:11:39.800Z,10.10
2022-12-19T11:19:13.699Z,10.20
2022-12-19T11:25:00.212Z,10.30
2022-12-19T11:29:31.695Z,10.30
2022-12-19T11:29:44.239Z,10.10
2022-12-19T11:30:26.145Z,10.40
2022-12-19T11:30:47.113Z,10.30
2022-12-19T11:34:07.123Z,10.50
2022-12-19T11:36:48.445Z,10.20
2022-12-19T11:39:29.827Z,10.50
2022-12-19T11:42:34.193Z,10.40
2022-12-19T11:45:17.839Z,10.60
2022-12-19T11:48:03.838Z,10.50
2022-12-19T11:50:39.112Z,10.70
2022-12-19T11:53:19.713Z,10.60
2022-12-19T11:56:01.207Z,10.70
2022-12-19T11:58:29.954Z,10.50
2022-12-19T12:01:22.604Z,10.60
2022-12-19T12:04:03.209Z,10.60
2022-12-19T12:06:35.507Z,10.50
2022-12-19T12:12:08.989Z,10.60
2022-12-19T12:20:54.227Z,10.50
2022-12-19T12:28:25.568Z,10.50
2022-12-19T12:30:59.650Z,10.80
2022-12-19T12:31:21.635Z,10.60
2022-12-19T12:31:42.239Z,10.90
2022-12-19T12:31:46.048Z,10.80
2022-12-19T12:35:16.614Z,10.90
2022-12-19T12:35:52.372Z,10.70
2022-12-19T12:40:02.206Z,11.00
2022-12-19T12:42:50.823Z,10.70
2022-12-19T12:45:40.032Z,10.70
2022-12-19T12:48:41.094Z,10.90
2022-12-19T12:51:09.975Z,10.80
2022-12-19T12:53:45.168Z,10.90
2022-12-19T12:56:16.275Z,10.60
2022-12-19T12:58:54.193Z,10.90
2022-12-19T13:01:38.924Z,10.70
2022-12-19T13:04:12.664Z,11.00
2022-12-19T13:07:12.150Z,11.00
2022-12-19T13:09:40.520Z,11.00
2022-12-19T13:12:39.961Z,11.00
2022-12-19T13:15:22.512Z,10.90
2022-12-19T13:17:49.963Z,11.00
2022-12-19T13:20:17.518Z,10.80
2022-12-19T13:23:02.016Z,10.90
2022-12-19T13:25:38.129Z,11.00
2022-12-19T13:28:23.637Z,10.70
2022-12-19T13:31:18.885Z,11.00
2022-12-19T13:33:53.555Z,10.80
2022-12-19T13:39:48.493Z,11.00
2022-12-19T13:40:02.473Z,10.80
2022-12-19T13:42:46.048Z,10.80
2022-12-19T13:45:33.311Z,10.80
2022-12-19T13:48:04.800Z,11.00
2022-12-19T13:50:38.131Z,11.10
2022-12-19T13:53:19.991Z,11.00
2022-12-19T13:55:50.042Z,11.00
2022-12-19T13:58:54.657Z,11.30
2022-12-19T14:01:37.515Z,10.90
2022-12-19T14:04:09.518Z,11.20
2022-12-19T14:06:46.246Z,11.10
2022-12-19T14:11:28.383Z,11.00
2022-12-19T14:13:50.914Z,11.30
2022-12-19T14:15:44.869Z,11.20
2022-12-19T14:18:44.475Z,10.90
2022-12-19T14:22:08.985Z,10.90
2022-12-19T14:24:19.945Z,11.10
2022-12-19T14:28:23.279Z,11.20
2022-12-19T14:30:29.271Z,11.20
2022-12-19T14:33:44.434Z,11.30
2022-12-19T14:36:06.712Z,11.00
2022-12-19T14:39:23.899Z,11.20
2022-12-19T14:41:47.738Z,11.00
2022-12-19T14:53:34.401Z,11.30
2022-12-19T14:54:07.606Z,11.00
2022-12-19T14:54:11.219Z,11.20
2022-12-19T14:54:40.196Z,11.00
2022-12-19T14:56:08.637Z,11.20
2022-12-19T14:58:54.892Z,11.30
2022-12-19T15:01:29.215Z,11.10
2022-12-19T15:04:50.875Z,11.00
2022-12-19T15:07:09.518Z,11.30
2022-12-19T15:11:03.774Z,11.20
2022-12-19T15:14:50.872Z,11.00
2022-12-19T15:16:07.427Z,11.20
2022-12-19T15:18:39.196Z,11.10
2022-12-19T15:21:10.522Z,11.00
2022-12-19T15:23:38.398Z,11.20
2022-12-19T15:26:13.154Z,11.30
2022-12-19T15:28:55.611Z,11.30
2022-12-19T15:31:26.378Z,10.90
2022-12-19T15:34:32.405Z,11.20
2022-12-19T15:36:41.941Z,11.00
2022-12-19T15:39:09.508Z,11.20
2022-12-19T15:41:37.116Z,11.10
2022-12-19T15:44:14.598Z,11.00
2022-12-19T15:46:48.374Z,11.30
2022-12-19T15:49:21.557Z,11.30
2022-12-19T15:51:50.228Z,11.30
2022-12-19T15:57:06.398Z,11.20
2022-12-19T15:59:37.820Z,11.30
2022-12-19T16:02:18.612Z,11.40
2022-12-19T16:04:47.956Z,11.20
2022-12-19T16:07:17.807Z,11.20
2022-12-19T16:09:45.538Z,11.30
2022-12-19T16:12:24.016Z,11.00
2022-12-19T16:14:57.656Z,11.40
2022-12-19T16:17:26.968Z,11.20
2022-12-19T16:19:54.467Z,11.40
2022-12-19T16:22:27.479Z,11.10
2022-12-19T16:24:55.557Z,11.20
2022-12-19T16:27:26.471Z,11.10
2022-12-19T16:29:54.930Z,11.20
2022-12-19T16:32:24.617Z,11.20
2022-12-19T16:34:53.158Z,11.20
2022-12-19T16:37:20.905Z,11.30
2022-12-19T16:39:48.415Z,11.10
2022-12-19T16:42:17.662Z,11.10
2022-12-19T16:44:46.984Z,11.10
2022-12-19T16:47:17.282Z,11.10
2022-12-19T16:49:45.420Z,11.20
2022-12-19T16:52:13.049Z,11.00
2022-12-19T16:54:40.865Z,11.00
2022-12-19T16:57:21.720Z,11.10
2022-12-19T16:59:51.007Z,11.00
2022-12-19T17:02:38.600Z,11.20
2022-12-19T17:05:08.273Z,11.30
2022-12-19T17:07:35.801Z,11.10
2022-12-19T17:10:03.475Z,11.30
2022-12-19T17:12:30.983Z,11.30
2022-12-19T17:14:59.148Z,10.90
2022-12-19T17:17:26.645Z,11.00
2022-12-19T17:19:54.326Z,11.10
2022-12-19T17:22:21.859Z,11.00
2022-12-19T17:24:49.801Z,11.00
2022-12-19T17:27:19.268Z,11.00
2022-12-19T17:29:47.291Z,11.20
2022-12-19T17:32:23.554Z,11.20
2022-12-19T17:34:52.811Z,11.00
2022-12-19T17:37:20.946Z,11.00
2022-12-19T17:39:48.798Z,11.00
2022-12-19T17:42:25.061Z,11.00
2022-12-19T17:44:52.652Z,11.00
2022-12-19T17:47:21.099Z,11.30
2022-12-19T17:49:49.504Z,11.00
2022-12-19T17:52:19.842Z,11.10
2022-12-19T17:54:47.473Z,11.00
2022-12-19T17:57:17.240Z,11.00
2022-12-19T17:59:46.685Z,11.00
2022-12-19T18:02:25.432Z,11.00
2022-12-19T18:04:53.555Z,10.90
2022-12-19T18:07:21.345Z,11.30
2022-12-19T18:09:48.892Z,11.30
2022-12-19T18:12:16.467Z,11.20
2022-12-19T18:14:43.976Z,11.00
2022-12-19T18:17:21.908Z,11.30
2022-12-19T18:19:50.155Z,11.00
2022-12-19T18:22:17.607Z,11.30
2022-12-19T18:24:45.202Z,11.30
2022-12-19T18:27:12.845Z,11.10
2022-12-19T18:29:40.403Z,11.30
2022-12-19T18:32:16.274Z,11.10
2022-12-19T18:34:44.079Z,11.30
2022-12-19T18:37:17.857Z,11.10
2022-12-19T18:39:45.486Z,11.40
2022-12-19T18:42:22.166Z,11.40
2022-12-19T18:44:49.721Z,11.50
2022-12-19T18:47:22.431Z,11.40
2022-12-19T18:49:51.865Z,11.30
2022-12-19T18:52:19.417Z,11.20
2022-12-19T18:54:46.970Z,11.40
2022-12-19T18:57:14.616Z,11.10
2022-12-19T18:59:42.096Z,11.40
2022-12-19T19:02:25.604Z,11.10
2022-12-19T19:04:55.701Z,11.40
2022-12-19T19:07:23.299Z,11.40
2022-12-19T19:09:50.852Z,11.40
2022-12-19T19:12:58.929Z,11.40
2022-12-19T19:15:32.933Z,11.50
2022-12-19T19:18:03.306Z,11.20
2022-12-19T19:23:55.334Z,11.10
2022-12-19T19:26:24.491Z,11.30
2022-12-19T19:28:52.673Z,11.30
2022-12-19T19:31:23.409Z,11.00
2022-12-19T19:33:57.842Z,11.20
2022-12-19T19:36:29.624Z,11.20
2022-12-19T19:38:58.111Z,11.10
2022-12-19T19:41:30.227Z,10.90
2022-12-19T19:43:59.856Z,11.00
2022-12-19T19:46:28.141Z,10.70
2022-12-19T19:48:56.122Z,10.90
2022-12-19T19:51:23.669Z,10.70
2022-12-19T19:53:51.646Z,10.80
2022-12-19T19:56:19.138Z,10.80
2022-12-19T19:58:46.651Z,10.50
2022-12-19T20:01:15.418Z,10.50
2022-12-19T20:03:44.991Z,10.60
2022-12-19T20:06:13.116Z,10.60
2022-12-19T20:08:41.099Z,10.50
2022-12-19T20:11:10.798Z,10.50
2022-12-19T20:13:38.629Z,10.30
2022-12-19T20:16:09.073Z,10.20
2022-12-19T20:18:38.120Z,10.10
2022-12-19T20:21:13.207Z,10.10
2022-12-19T20:23:42.943Z,10.00
2022-12-19T20:26:12.176Z,10.00
2022-12-19T20:28:47.951Z,9.70
2022-12-19T20:31:21.119Z,9.90
2022-12-19T20:33:49.243Z,9.80
2022-12-19T20:36:17.596Z,9.60
2022-12-19T20:38:46.211Z,9.60
2022-12-19T20:41:14.364Z,9.50
2022-12-19T20:43:42.268Z,9.50
2022-12-19T20:46:15.783Z,9.50
2022-12-19T20:48:44.910Z,9.40
2022-12-19T20:51:14.725Z,9.40
2022-12-19T20:53:42.973Z,9.20
2022-12-19T20:56:14.940Z,9.20
2022-12-19T20:58:42.867Z,9.20
2022-12-19T21:01:17.559Z,9.10
2022-12-19T21:03:45.676Z,9.00
2022-12-19T21:06:18.763Z,9.00
2022-12-19T21:08:46.916Z,8.90
2022-12-19T21:11:15.754Z,8.80
2022-12-19T21:13:43.842Z,8.70
2022-12-19T21:16:17.348Z,8.80
2022-12-19T21:18:46.431Z,8.70
2022-12-19T21:21:25.416Z,8.60
2022-12-19T21:23:54.124Z,8.50
2022-12-19T21:26:23.460Z,8.50
2022-12-19T21:28:51.392Z,8.40
2022-12-19T21:31:25.380Z,8.40
2022-12-19T21:33:58.644Z,8.40
2022-12-19T21:36:27.832Z,8.30
2022-12-19T21:38:57.810Z,8.30
2022-12-19T21:41:25.603Z,8.20
2022-12-19T21:43:54.726Z,8.10
2022-12-19T21:46:28.008Z,8.10
2022-12-19T21:48:57.130Z,8.10
2022-12-19T21:51:28.386Z,8.00
2022-12-19T21:54:00.787Z,7.90
2022-12-19T21:56:32.449Z,7.80
2022-12-19T21:59:02.671Z,7.80
2022-12-19T22:01:31.322Z,7.70
2022-12-19T22:04:01.400Z,7.70
2022-12-19T22:06:33.597Z,7.70
2022-12-19T22:09:02.267Z,7.60
2022-12-19T22:11:30.501Z,7.60
2022-12-19T22:14:02.013Z,7.50
2022-12-19T22:16:29.786Z,7.50
2022-12-19T22:18:57.489Z,7.50
2022-12-19T22:21:25.791Z,7.40
2022-12-19T22:23:57.616Z,7.40
2022-12-19T22:26:26.041Z,7.30
2022-12-19T22:28:55.782Z,7.30
2022-12-19T22:31:29.351Z,7.20
2022-12-19T22:33:59.742Z,7.20
2022-12-19T22:36:29.315Z,7.20
2022-12-19T22:38:58.288Z,7.10
2022-12-19T22:41:26.514Z,7.00
2022-12-19T22:43:54.876Z,7.00
2022-12-19T22:46:28.399Z,6.90
2022-12-19T22:48:58.486Z,6.90
2022-12-19T22:51:27.353Z,6.80
2022-12-19T22:53:55.357Z,6.80
2022-12-19T22:56:25.433Z,6.80
2022-12-19T22:58:54.886Z,6.90
2022-12-19T23:01:29.899Z,7.00
2022-12-19T23:03:59.998Z,7.00
2022-12-19T23:06:31.040Z,7.00
2022-12-19T23:09:00.353Z,6.90
2022-12-19T23:11:36.403Z,6.90
2022-12-19T23:14:05.783Z,6.80
2022-12-19T23:16:33.440Z,6.70
2022-12-19T23:19:01.172Z,6.80
2022-12-19T23:21:28.688Z,6.70
2022-12-19T23:23:56.590Z,6.70
2022-12-19T23:26:36.128Z,6.70
2022-12-19T23:29:08.220Z,6.80
2022-12-19T23:31:36.488Z,6.90
2022-12-19T23:34:04.122Z,6.90
2022-12-19T23:37:09.119Z,6.90
2022-12-19T23:39:19.583Z,7.00
2022-12-19T23:41:47.072Z,7.10
2022-12-19T23:44:14.653Z,7.00
2022-12-19T23:46:42.282Z,7.00
2022-12-19T23:49:09.816Z,7.00
2022-12-19T23:51:37.478Z,7.00
2022-12-19T23:54:05.287Z,6.90
2022-12-19T23:56:33.218Z,6.90
2022-12-19T23:59:01.600Z,6.90
